Time;durP1;ratioP1;P1;durP2;ratioP2;P2;SDS_P1;SDS_P2;PMS_P1;PMS_P2;Temp;Humidity;BMP_temperature;BMP_pressure;BME280_temperature;BME280_humidity;BME280_pressure;Samples;Min_cycle;Max_cycle;Signal;HPM_P1;HPM_P2
2022/03/27 00:02:05;;;;;;;7.68;5.28;;;;;;;;;;5079606;28;20414;-82
2022/03/27 00:04:30;;;;;;;8.23;5.45;;;;;;;;;;5076064;28;20035;-82
2022/03/27 00:06:56;;;;;;;9.27;6.32;;;;;;;;;;5059329;28;20032;-81
2022/03/27 00:09:21;;;;;;;7.93;5.63;;;;;;;;;;5075536;28;20032;-81
2022/03/27 00:11:46;;;;;;;8.10;5.60;;;;;;;;;;5075882;28;20050;-81
2022/03/27 00:14:12;;;;;;;7.10;5.68;;;;;;;;;;5064197;28;20063;-81
2022/03/27 00:16:38;;;;;;;7.32;5.60;;;;;;;;;;5048111;28;20040;-80
2022/03/27 00:19:04;;;;;;;8.60;6.20;;;;;;;;;;5059154;28;20032;-81
2022/03/27 00:21:30;;;;;;;7.57;5.78;;;;;;;;;;5075585;28;20044;-81
2022/03/27 00:23:55;;;;;;;8.23;6.18;;;;;;;;;;5075019;28;20120;-81
2022/03/27 00:26:21;;;;;;;6.38;5.40;;;;;;;;;;5058858;28;20061;-81
2022/03/27 00:28:46;;;;;;;7.18;5.50;;;;;;;;;;5042134;28;20043;-81
2022/03/27 00:31:12;;;;;;;7.40;5.55;;;;;;;;;;5075425;28;20418;-81
2022/03/27 00:33:38;;;;;;;6.55;5.13;;;;;;;;;;5058588;28;20402;-81
2022/03/27 00:36:05;;;;;;;7.30;5.50;;;;;;;;;;5075417;28;20032;-81
2022/03/27 00:38:32;;;;;;;6.90;5.18;;;;;;;;;;5091326;28;20526;-81
2022/03/27 00:40:57;;;;;;;7.25;5.40;;;;;;;;;;5042524;28;20522;-81
2022/03/27 00:43:23;;;;;;;7.78;5.88;;;;;;;;;;5058526;28;20103;-81
2022/03/27 00:45:48;;;;;;;6.50;5.25;;;;;;;;;;5058135;28;20114;-81
2022/03/27 00:48:15;;;;;;;6.40;5.22;;;;;;;;;;5056399;28;20063;-81
2022/03/27 00:50:41;;;;;;;6.35;5.28;;;;;;;;;;5073415;28;20626;-82
2022/03/27 00:53:07;;;;;;;6.72;6.03;;;;;;;;;;5073137;28;20039;-81
2022/03/27 00:55:32;;;;;;;6.93;5.70;;;;;;;;;;5057520;28;20032;-80
2022/03/27 00:57:59;;;;;;;7.90;5.72;;;;;;;;;;5058172;28;20036;-81
2022/03/27 01:00:46;;;;;;;8.10;5.53;;;;;;;;;;5078607;28;20050;-81
2022/03/27 01:03:20;;;;;;;6.35;5.47;;;;;;;;;;5095125;28;20122;-81
2022/03/27 01:05:48;;;;;;;7.80;6.10;;;;;;;;;;5061949;28;20573;-81
2022/03/27 01:08:13;;;;;;;8.30;5.90;;;;;;;;;;5095203;28;20147;-81
2022/03/27 01:10:39;;;;;;;7.32;5.85;;;;;;;;;;5061170;28;20506;-81
2022/03/27 01:13:08;;;;;;;6.40;5.68;;;;;;;;;;5077879;28;20134;-81
2022/03/27 01:15:37;;;;;;;7.95;6.18;;;;;;;;;;5074774;28;20032;-81
2022/03/27 01:18:03;;;;;;;8.23;5.97;;;;;;;;;;5074892;28;20073;-81
2022/03/27 01:20:33;;;;;;;6.65;5.82;;;;;;;;;;5057537;28;20062;-81
2022/03/27 01:22:59;;;;;;;8.63;5.80;;;;;;;;;;5057327;28;20528;-81
2022/03/27 01:25:24;;;;;;;6.93;5.05;;;;;;;;;;5074273;28;20032;-81
2022/03/27 01:27:50;;;;;;;6.20;5.35;;;;;;;;;;5040920;28;20175;-81
2022/03/27 01:30:15;;;;;;;8.02;5.68;;;;;;;;;;5058224;28;20067;-81
2022/03/27 01:32:41;;;;;;;7.57;5.53;;;;;;;;;;5057630;28;20034;-81
2022/03/27 01:35:07;;;;;;;6.38;5.57;;;;;;;;;;5073688;28;20059;-81
2022/03/27 01:37:33;;;;;;;7.35;5.78;;;;;;;;;;5090947;28;20040;-81
2022/03/27 01:39:58;;;;;;;7.78;6.57;;;;;;;;;;5057910;28;20406;-81
2022/03/27 01:42:23;;;;;;;7.80;5.82;;;;;;;;;;5057539;28;20119;-81
2022/03/27 01:44:49;;;;;;;6.78;5.47;;;;;;;;;;5057338;28;20093;-81
2022/03/27 01:47:14;;;;;;;7.47;5.35;;;;;;;;;;5057226;28;20039;-81
2022/03/27 01:49:41;;;;;;;8.20;6.30;;;;;;;;;;5073735;28;20059;-81
2022/03/27 01:52:06;;;;;;;7.82;6.15;;;;;;;;;;5064163;28;20051;-81
2022/03/27 01:54:32;;;;;;;7.47;6.13;;;;;;;;;;5073430;28;20494;-81
2022/03/27 01:56:58;;;;;;;9.68;6.82;;;;;;;;;;5073966;28;20111;-81
2022/03/27 01:59:23;;;;;;;7.82;6.30;;;;;;;;;;5059895;28;20401;-81
2022/03/27 02:01:49;;;;;;;7.35;6.03;;;;;;;;;;5077134;28;20032;-82
2022/03/27 02:04:15;;;;;;;7.32;5.93;;;;;;;;;;5056924;28;20040;-81
2022/03/27 02:06:42;;;;;;;6.53;5.82;;;;;;;;;;5056887;28;20032;-81
2022/03/27 02:09:10;;;;;;;6.32;5.53;;;;;;;;;;5057060;28;20032;-81
2022/03/27 02:11:35;;;;;;;6.70;6.00;;;;;;;;;;5090504;28;20036;-81
2022/03/27 02:14:01;;;;;;;6.10;5.47;;;;;;;;;;5094616;28;20669;-81
2022/03/27 02:16:27;;;;;;;7.55;5.78;;;;;;;;;;5040121;28;20024;-81
2022/03/27 02:18:52;;;;;;;7.00;6.00;;;;;;;;;;5073785;28;20125;-81
2022/03/27 02:21:17;;;;;;;6.90;6.18;;;;;;;;;;5057225;28;20043;-81
2022/03/27 02:23:43;;;;;;;7.55;6.03;;;;;;;;;;5056428;28;20039;-81
2022/03/27 02:26:08;;;;;;;7.00;6.15;;;;;;;;;;5056645;28;20040;-81
2022/03/27 02:28:34;;;;;;;6.57;5.75;;;;;;;;;;5040458;28;20035;-81
2022/03/27 02:31:00;;;;;;;7.00;6.15;;;;;;;;;;5040398;28;20077;-80
2022/03/27 02:33:25;;;;;;;7.40;6.00;;;;;;;;;;5073323;28;20039;-81
2022/03/27 02:35:51;;;;;;;6.80;5.88;;;;;;;;;;5056680;28;20051;-81
2022/03/27 02:38:16;;;;;;;9.50;6.05;;;;;;;;;;5040232;28;20122;-81
2022/03/27 02:40:42;;;;;;;7.05;5.93;;;;;;;;;;5040275;28;20028;-81
2022/03/27 02:43:10;;;;;;;7.18;5.72;;;;;;;;;;5056552;28;20061;-81
2022/03/27 02:45:36;;;;;;;7.20;5.68;;;;;;;;;;5073836;28;20726;-81
2022/03/27 02:48:01;;;;;;;7.03;6.32;;;;;;;;;;5056212;28;20043;-81
2022/03/27 02:50:28;;;;;;;6.60;5.80;;;;;;;;;;5040061;28;20494;-81
2022/03/27 02:52:54;;;;;;;7.90;5.53;;;;;;;;;;5086370;28;20036;-79
2022/03/27 02:55:20;;;;;;;7.00;5.93;;;;;;;;;;5072992;28;20035;-81
2022/03/27 02:57:46;;;;;;;6.93;6.20;;;;;;;;;;5073253;28;20074;-81
2022/03/27 03:00:12;;;;;;;6.95;6.00;;;;;;;;;;5071129;28;20481;-81
2022/03/27 03:02:37;;;;;;;6.35;5.70;;;;;;;;;;5056040;28;20107;-81
2022/03/27 03:05:04;;;;;;;6.68;5.60;;;;;;;;;;5055723;28;20032;-81
2022/03/27 03:07:30;;;;;;;6.55;5.80;;;;;;;;;;5056661;28;20028;-81
2022/03/27 03:09:56;;;;;;;8.57;6.15;;;;;;;;;;5057007;28;20043;-81
2022/03/27 03:12:21;;;;;;;8.48;5.88;;;;;;;;;;5060472;28;20024;-81
2022/03/27 03:14:47;;;;;;;7.45;5.88;;;;;;;;;;5087062;28;20036;-81
2022/03/27 03:17:12;;;;;;;6.15;5.55;;;;;;;;;;5059750;28;20040;-81
2022/03/27 03:19:38;;;;;;;7.20;5.72;;;;;;;;;;5043683;28;20075;-81
2022/03/27 03:22:04;;;;;;;7.18;5.72;;;;;;;;;;5059950;28;20066;-80
2022/03/27 03:24:30;;;;;;;6.88;5.50;;;;;;;;;;5059659;28;20110;-81
2022/03/27 03:26:56;;;;;;;6.68;6.00;;;;;;;;;;5076733;28;20772;-81
2022/03/27 03:29:21;;;;;;;6.53;5.10;;;;;;;;;;5060171;28;20072;-81
2022/03/27 03:31:47;;;;;;;9.05;6.03;;;;;;;;;;5059488;28;20405;-81
2022/03/27 03:34:13;;;;;;;7.10;5.35;;;;;;;;;;5059794;28;20073;-81
2022/03/27 03:36:38;;;;;;;7.40;6.07;;;;;;;;;;5042994;28;20028;-81
2022/03/27 03:39:03;;;;;;;7.55;5.97;;;;;;;;;;5042994;28;20119;-81
2022/03/27 03:41:29;;;;;;;7.85;6.35;;;;;;;;;;5060107;28;20032;-81
2022/03/27 03:43:54;;;;;;;7.00;6.30;;;;;;;;;;5043228;28;20074;-81
2022/03/27 03:46:20;;;;;;;6.85;5.80;;;;;;;;;;5059409;28;20051;-81
2022/03/27 03:48:45;;;;;;;6.28;5.68;;;;;;;;;;5042815;28;20051;-81
2022/03/27 03:51:11;;;;;;;7.88;6.20;;;;;;;;;;5062346;28;20051;-81
2022/03/27 03:53:36;;;;;;;7.45;5.95;;;;;;;;;;5078754;28;20043;-81
2022/03/27 03:56:02;;;;;;;6.70;5.70;;;;;;;;;;5062844;28;20038;-81
2022/03/27 03:58:27;;;;;;;6.40;5.68;;;;;;;;;;5096575;28;20106;-81
2022/03/27 04:00:52;;;;;;;6.38;5.05;;;;;;;;;;5062288;28;20035;-81
2022/03/27 04:03:18;;;;;;;7.00;5.90;;;;;;;;;;5075734;28;20410;-81
2022/03/27 04:05:43;;;;;;;6.78;5.97;;;;;;;;;;5059579;28;20389;-81
2022/03/27 04:08:09;;;;;;;6.90;6.20;;;;;;;;;;5058988;28;20039;-81
2022/03/27 04:10:34;;;;;;;6.78;5.40;;;;;;;;;;5059179;28;20444;-81
2022/03/27 04:13:00;;;;;;;8.35;6.40;;;;;;;;;;5042821;28;20071;-81
2022/03/27 04:15:25;;;;;;;6.65;5.45;;;;;;;;;;5073935;28;20032;-81
2022/03/27 04:17:51;;;;;;;6.40;5.43;;;;;;;;;;5059022;28;20398;-81
2022/03/27 04:20:17;;;;;;;7.32;5.95;;;;;;;;;;5075733;28;20039;-81
2022/03/27 04:22:43;;;;;;;7.65;5.93;;;;;;;;;;5040965;28;20055;-81
2022/03/27 04:25:12;;;;;;;6.50;5.53;;;;;;;;;;5059100;28;20491;-81
2022/03/27 04:27:37;;;;;;;8.65;6.35;;;;;;;;;;5059449;28;20024;-81
2022/03/27 04:30:04;;;;;;;8.05;6.15;;;;;;;;;;5058633;28;20387;-81
2022/03/27 04:32:30;;;;;;;7.20;6.03;;;;;;;;;;5042468;28;20047;-80
2022/03/27 04:34:56;;;;;;;8.30;6.47;;;;;;;;;;5075190;28;20498;-81
2022/03/27 04:37:21;;;;;;;8.68;6.03;;;;;;;;;;5042011;28;20398;-80
2022/03/27 04:39:47;;;;;;;6.65;5.95;;;;;;;;;;5075318;28;20036;-81
2022/03/27 04:42:13;;;;;;;6.00;5.40;;;;;;;;;;5041971;28;20112;-81
2022/03/27 04:44:38;;;;;;;7.82;6.22;;;;;;;;;;5041747;28;20172;-81
2022/03/27 04:47:05;;;;;;;7.45;6.15;;;;;;;;;;5058668;28;20557;-81
2022/03/27 04:49:31;;;;;;;7.45;6.18;;;;;;;;;;5058484;28;20043;-81
2022/03/27 04:51:57;;;;;;;7.32;5.60;;;;;;;;;;5067184;28;20097;-81
2022/03/27 04:54:22;;;;;;;6.90;6.05;;;;;;;;;;5078387;28;20390;-81
2022/03/27 04:56:48;;;;;;;6.97;5.65;;;;;;;;;;5061735;28;20050;-81
2022/03/27 04:59:13;;;;;;;8.10;6.10;;;;;;;;;;5058157;28;20039;-81
2022/03/27 05:01:39;;;;;;;8.10;6.18;;;;;;;;;;5057923;28;20169;-81
2022/03/27 05:04:04;;;;;;;7.05;6.25;;;;;;;;;;5073722;28;20040;-81
2022/03/27 05:06:30;;;;;;;7.03;5.93;;;;;;;;;;5077782;28;20118;-81
2022/03/27 05:08:58;;;;;;;6.60;5.70;;;;;;;;;;5077930;28;20082;-81
2022/03/27 05:11:30;;;;;;;6.43;5.75;;;;;;;;;;5061782;28;20027;-81
2022/03/27 05:13:56;;;;;;;6.50;5.68;;;;;;;;;;5091300;28;20036;-81
2022/03/27 05:16:21;;;;;;;7.03;5.95;;;;;;;;;;5041052;28;20042;-81
2022/03/27 05:18:48;;;;;;;6.43;5.82;;;;;;;;;;5074734;28;20051;-81
2022/03/27 05:21:13;;;;;;;8.10;6.47;;;;;;;;;;5091249;28;20028;-81
2022/03/27 05:23:39;;;;;;;6.65;5.97;;;;;;;;;;5094057;28;20040;-81
2022/03/27 05:26:04;;;;;;;8.75;6.03;;;;;;;;;;5074374;28;20481;-80
2022/03/27 05:28:30;;;;;;;7.30;5.75;;;;;;;;;;5067569;28;20119;-80
2022/03/27 05:30:56;;;;;;;10.73;6.35;;;;;;;;;;5089927;28;20028;-80
2022/03/27 05:33:22;;;;;;;10.88;6.00;;;;;;;;;;5066179;28;20509;-79
2022/03/27 05:35:48;;;;;;;11.45;6.75;;;;;;;;;;5089654;28;20024;-80
2022/03/27 05:38:13;;;;;;;8.15;5.30;;;;;;;;;;5077198;28;20031;-80
2022/03/27 05:40:39;;;;;;;7.18;5.88;;;;;;;;;;5075621;28;20105;-81
2022/03/27 05:43:05;;;;;;;9.18;5.88;;;;;;;;;;5077300;28;20126;-82
2022/03/27 05:45:30;;;;;;;9.35;6.55;;;;;;;;;;5088403;28;20024;-81
2022/03/27 05:47:56;;;;;;;7.38;5.72;;;;;;;;;;5074748;28;20058;-82
2022/03/27 05:50:22;;;;;;;8.25;5.88;;;;;;;;;;5076876;28;20122;-82
2022/03/27 05:52:48;;;;;;;7.50;5.63;;;;;;;;;;5093011;28;20528;-81
2022/03/27 05:55:14;;;;;;;7.28;6.03;;;;;;;;;;5076202;28;20477;-80
2022/03/27 05:57:40;;;;;;;6.50;5.82;;;;;;;;;;5059834;28;20032;-79
2022/03/27 06:00:20;;;;;;;8.45;6.72;;;;;;;;;;5062627;28;20028;-80
2022/03/27 06:02:55;;;;;;;7.38;6.43;;;;;;;;;;5076050;28;20071;-82
2022/03/27 06:05:24;;;;;;;7.95;5.88;;;;;;;;;;5060797;28;20031;-81
2022/03/27 06:07:53;;;;;;;9.15;5.85;;;;;;;;;;5076845;28;20031;-80
2022/03/27 06:10:26;;;;;;;6.70;5.47;;;;;;;;;;5059653;28;20036;-80
2022/03/27 06:12:52;;;;;;;10.13;5.65;;;;;;;;;;5074791;28;20042;-81
2022/03/27 06:15:17;;;;;;;12.50;5.85;;;;;;;;;;5065449;28;20024;-80
2022/03/27 06:17:44;;;;;;;7.70;5.75;;;;;;;;;;5092883;28;20032;-80
2022/03/27 06:20:12;;;;;;;10.88;6.93;;;;;;;;;;5057275;28;20085;-79
2022/03/27 06:22:39;;;;;;;18.63;7.22;;;;;;;;;;5067450;28;20502;-77
2022/03/27 06:25:05;;;;;;;20.27;7.10;;;;;;;;;;5090651;28;20092;-80
2022/03/27 06:27:31;;;;;;;40.55;9.35;;;;;;;;;;5073640;28;20036;-79
2022/03/27 06:29:56;;;;;;;42.00;9.63;;;;;;;;;;5073208;28;20043;-79
2022/03/27 06:32:22;;;;;;;35.22;7.85;;;;;;;;;;5068913;28;20050;-79
2022/03/27 06:34:47;;;;;;;29.77;7.45;;;;;;;;;;5060165;28;20027;-78
2022/03/27 06:37:13;;;;;;;18.95;6.95;;;;;;;;;;5076215;28;20027;-78
2022/03/27 06:39:38;;;;;;;20.45;8.27;;;;;;;;;;5093380;28;20392;-78
2022/03/27 06:42:04;;;;;;;16.98;7.47;;;;;;;;;;5110901;28;20058;-78
2022/03/27 06:44:30;;;;;;;24.90;9.85;;;;;;;;;;5093526;28;20036;-78
2022/03/27 06:46:55;;;;;;;18.25;8.00;;;;;;;;;;5097380;28;20505;-78
2022/03/27 06:49:21;;;;;;;41.67;10.43;;;;;;;;;;5080949;28;20047;-78
2022/03/27 06:51:46;;;;;;;31.63;11.60;;;;;;;;;;5064058;28;20039;-79
2022/03/27 06:54:11;;;;;;;24.90;9.80;;;;;;;;;;5096847;28;20073;-78
2022/03/27 06:56:41;;;;;;;26.75;10.35;;;;;;;;;;5080440;28;20058;-79
2022/03/27 06:59:06;;;;;;;42.83;11.10;;;;;;;;;;5077845;28;20066;-78
2022/03/27 07:04:16;;;;;;;52.85;11.40;;;;;;;;;;5097279;28;20123;-79
2022/03/27 07:06:42;;;;;;;46.90;11.52;;;;;;;;;;5063600;28;20115;-79
2022/03/27 07:09:09;;;;;;;33.40;10.13;;;;;;;;;;5097190;28;20032;-79
2022/03/27 07:11:35;;;;;;;24.48;8.00;;;;;;;;;;5080646;28;20036;-79
2022/03/27 07:14:01;;;;;;;21.90;8.30;;;;;;;;;;5060366;28;20082;-79
2022/03/27 07:16:26;;;;;;;27.90;9.25;;;;;;;;;;5059741;28;20524;-79
2022/03/27 07:18:52;;;;;;;26.60;7.93;;;;;;;;;;5077333;28;20032;-79
2022/03/27 07:21:18;;;;;;;18.40;7.50;;;;;;;;;;5097062;28;20031;-78
2022/03/27 07:23:44;;;;;;;17.95;7.45;;;;;;;;;;5092788;28;20024;-79
2022/03/27 07:26:10;;;;;;;20.17;6.95;;;;;;;;;;5076625;28;20042;-79
2022/03/27 07:28:36;;;;;;;16.27;6.78;;;;;;;;;;5043528;28;20032;-79
2022/03/27 07:31:02;;;;;;;14.40;6.45;;;;;;;;;;5043477;28;20062;-80
2022/03/27 07:33:28;;;;;;;21.00;6.90;;;;;;;;;;5060090;28;20397;-79
2022/03/27 07:35:54;;;;;;;10.80;6.45;;;;;;;;;;5051385;28;20032;-79
2022/03/27 07:38:20;;;;;;;17.67;6.90;;;;;;;;;;5059719;28;20024;-78
2022/03/27 07:40:45;;;;;;;11.80;5.97;;;;;;;;;;5059588;28;20060;-79
2022/03/27 07:43:11;;;;;;;12.93;6.28;;;;;;;;;;5059437;28;20028;-79
2022/03/27 07:45:37;;;;;;;10.40;5.07;;;;;;;;;;5060078;28;20048;-79
2022/03/27 07:48:02;;;;;;;12.10;5.28;;;;;;;;;;5075951;28;20043;-79
2022/03/27 07:50:29;;;;;;;10.38;4.68;;;;;;;;;;5042929;28;20036;-80
2022/03/27 07:52:55;;;;;;;9.43;5.80;;;;;;;;;;5059675;28;20036;-79
2022/03/27 07:55:20;;;;;;;13.18;5.03;;;;;;;;;;5075824;28;20410;-79
2022/03/27 07:57:46;;;;;;;9.18;6.10;;;;;;;;;;5080661;28;20051;-79
2022/03/27 08:00:12;;;;;;;12.63;6.60;;;;;;;;;;5063374;28;20028;-79
2022/03/27 08:02:38;;;;;;;13.63;6.75;;;;;;;;;;5062674;28;20024;-79
2022/03/27 08:05:04;;;;;;;15.45;7.70;;;;;;;;;;5079552;28;20038;-80
2022/03/27 08:07:30;;;;;;;14.50;9.32;;;;;;;;;;5078800;28;20157;-82
2022/03/27 08:09:56;;;;;;;14.82;7.90;;;;;;;;;;5079254;28;20044;-80
2022/03/27 08:12:21;;;;;;;20.13;9.07;;;;;;;;;;5079409;28;20050;-79
2022/03/27 08:14:48;;;;;;;12.73;7.88;;;;;;;;;;5074218;28;20062;-79
2022/03/27 08:17:13;;;;;;;14.43;8.02;;;;;;;;;;5060269;28;20035;-79
2022/03/27 08:19:39;;;;;;;14.20;7.70;;;;;;;;;;5096005;28;20118;-79
2022/03/27 08:22:04;;;;;;;18.95;8.95;;;;;;;;;;5078486;28;20398;-79
2022/03/27 08:24:30;;;;;;;23.58;9.18;;;;;;;;;;5061106;28;20081;-79
2022/03/27 08:26:55;;;;;;;13.85;8.52;;;;;;;;;;5095609;28;20070;-78
2022/03/27 08:29:41;;;;;;;21.67;8.48;;;;;;;;;;5076733;28;20055;-78
2022/03/27 08:32:09;;;;;;;18.35;8.75;;;;;;;;;;5043813;28;20474;-78
2022/03/27 08:34:36;;;;;;;18.25;9.25;;;;;;;;;;5075822;28;20103;-78
2022/03/27 08:37:04;;;;;;;16.10;8.90;;;;;;;;;;5074156;28;20579;-79
2022/03/27 08:39:30;;;;;;;18.98;8.90;;;;;;;;;;5059267;28;20067;-79
2022/03/27 08:41:55;;;;;;;20.65;8.32;;;;;;;;;;5058749;28;20067;-79
2022/03/27 08:44:22;;;;;;;12.27;8.70;;;;;;;;;;5059421;28;20047;-79
2022/03/27 08:46:50;;;;;;;15.32;8.43;;;;;;;;;;5058745;28;20028;-78
2022/03/27 08:49:28;;;;;;;13.45;8.15;;;;;;;;;;5057810;28;20040;-78
2022/03/27 08:51:57;;;;;;;14.85;8.77;;;;;;;;;;5075034;28;20039;-78
2022/03/27 08:54:25;;;;;;;13.75;8.68;;;;;;;;;;5093686;28;20106;-78
2022/03/27 08:57:17;;;;;;;15.60;8.50;;;;;;;;;;5077241;28;20150;-82
2022/03/27 08:59:42;;;;;;;22.27;9.30;;;;;;;;;;5083295;28;20063;-80
2022/03/27 09:02:08;;;;;;;16.40;9.80;;;;;;;;;;5061495;28;20358;-80
2022/03/27 09:04:35;;;;;;;15.65;8.02;;;;;;;;;;5093361;28;20028;-80
2022/03/27 09:07:01;;;;;;;16.00;9.23;;;;;;;;;;5110023;28;20085;-80
2022/03/27 09:09:30;;;;;;;16.63;9.57;;;;;;;;;;5057865;28;20059;-81
2022/03/27 09:11:56;;;;;;;14.60;8.85;;;;;;;;;;5077643;28;20026;-80
2022/03/27 09:14:21;;;;;;;14.20;8.77;;;;;;;;;;5094349;28;20114;-80
2022/03/27 09:17:00;;;;;;;15.13;7.97;;;;;;;;;;5074155;28;20031;-80
2022/03/27 09:19:39;;;;;;;12.93;8.52;;;;;;;;;;5055383;28;20075;-80
2022/03/27 09:22:18;;;;;;;12.18;7.72;;;;;;;;;;5077453;28;20122;-80
2022/03/27 09:24:47;;;;;;;15.98;9.32;;;;;;;;;;5092310;28;20043;-80
2022/03/27 09:27:14;;;;;;;12.48;8.82;;;;;;;;;;5091838;28;20092;-80
2022/03/27 09:29:55;;;;;;;16.63;8.35;;;;;;;;;;5076663;28;20028;-80
2022/03/27 09:32:28;;;;;;;16.85;9.68;;;;;;;;;;5076326;28;20115;-79
2022/03/27 09:35:08;;;;;;;13.25;8.88;;;;;;;;;;5110528;28;20115;-80
2022/03/27 09:37:35;;;;;;;13.52;9.07;;;;;;;;;;5077270;28;20477;-80
2022/03/27 09:40:02;;;;;;;15.55;9.80;;;;;;;;;;5059381;28;20501;-79
2022/03/27 09:42:28;;;;;;;11.40;8.55;;;;;;;;;;5074215;28;20016;-79
2022/03/27 09:45:13;;;;;;;13.98;9.05;;;;;;;;;;5070689;28;20040;-80
2022/03/27 09:47:39;;;;;;;11.10;8.88;;;;;;;;;;5057411;28;20410;-80
2022/03/27 09:50:06;;;;;;;14.13;8.55;;;;;;;;;;5064425;28;20051;-80
2022/03/27 09:52:33;;;;;;;12.43;8.50;;;;;;;;;;5060212;28;20047;-79
2022/03/27 09:55:09;;;;;;;12.95;9.07;;;;;;;;;;5076173;28;20497;-80
2022/03/27 09:57:41;;;;;;;12.32;9.38;;;;;;;;;;5073673;28;20049;-80
2022/03/27 10:00:19;;;;;;;14.30;9.27;;;;;;;;;;5060594;28;20028;-80
2022/03/27 10:02:48;;;;;;;12.15;8.85;;;;;;;;;;5057567;28;20110;-80
2022/03/27 10:05:17;;;;;;;11.68;9.00;;;;;;;;;;5040281;28;20085;-80
2022/03/27 10:07:45;;;;;;;13.82;9.07;;;;;;;;;;5053004;28;20513;-80
2022/03/27 10:10:17;;;;;;;12.23;8.27;;;;;;;;;;5085255;28;20035;-80
2022/03/27 10:12:43;;;;;;;;;;;;;;;;;;5060495;28;20449;-80
2022/03/27 10:15:13;;;;;;;14.57;8.43;;;;;;;;;;5091560;28;19946;-80
2022/03/27 10:17:42;;;;;;;10.80;9.10;;;;;;;;;;5069510;28;20036;-80
2022/03/27 10:20:10;;;;;;;13.07;8.95;;;;;;;;;;5075993;28;20032;-80
2022/03/27 10:22:46;;;;;;;13.48;8.63;;;;;;;;;;5056894;28;20031;-80
2022/03/27 10:25:13;;;;;;;11.27;8.68;;;;;;;;;;5072326;28;20511;-80
2022/03/27 10:27:41;;;;;;;10.00;8.73;;;;;;;;;;5057023;28;20486;-80
2022/03/27 10:30:08;;;;;;;11.82;8.32;;;;;;;;;;5073628;28;20058;-80
2022/03/27 10:32:34;;;;;;;12.07;9.40;;;;;;;;;;5040058;28;20029;-80
2022/03/27 10:35:17;;;;;;;13.05;9.25;;;;;;;;;;5090482;28;20394;-80
2022/03/27 10:38:02;;;;;;;11.68;9.23;;;;;;;;;;5087871;28;20038;-80
2022/03/27 10:40:58;;;;;;;14.60;9.35;;;;;;;;;;5092896;28;20023;-80
2022/03/27 10:43:45;;;;;;;14.63;8.90;;;;;;;;;;5075800;28;20110;-80
2022/03/27 10:46:14;;;;;;;11.65;9.60;;;;;;;;;;5090285;28;20042;-78
2022/03/27 10:48:42;;;;;;;15.82;9.18;;;;;;;;;;5092410;28;20127;-80
2022/03/27 10:51:31;;;;;;;14.43;9.05;;;;;;;;;;5077124;28;20031;-79
2022/03/27 10:54:03;;;;;;;16.27;10.57;;;;;;;;;;5079059;28;20502;-79
2022/03/27 10:56:37;;;;;;;13.70;10.52;;;;;;;;;;5110282;28;20036;-79
2022/03/27 10:59:07;;;;;;;15.50;10.82;;;;;;;;;;5073487;28;20047;-79
2022/03/27 11:01:32;;;;;;;15.38;11.30;;;;;;;;;;5039942;28;20039;-79
2022/03/27 11:04:15;;;;;;;22.75;13.40;;;;;;;;;;5106673;28;20051;-79
2022/03/27 11:06:46;;;;;;;18.50;11.65;;;;;;;;;;5082332;28;20506;-79
2022/03/27 11:09:31;;;;;;;19.30;11.15;;;;;;;;;;5039855;28;20039;-79
2022/03/27 11:11:57;;;;;;;14.68;10.18;;;;;;;;;;5073222;28;20060;-79
2022/03/27 11:14:24;;;;;;;15.18;10.07;;;;;;;;;;5065983;28;20063;-79
2022/03/27 11:17:05;;;;;;;15.70;9.88;;;;;;;;;;5092770;28;20447;-79
2022/03/27 11:19:44;;;;;;;16.10;9.30;;;;;;;;;;5093408;28;20119;-79
2022/03/27 11:22:47;;;;;;;16.40;10.50;;;;;;;;;;5093878;28;20038;-80
2022/03/27 11:25:23;;;;;;;15.75;9.95;;;;;;;;;;5059544;28;20123;-79
2022/03/27 11:28:17;;;;;;;15.40;10.25;;;;;;;;;;5072699;28;20032;-79
2022/03/27 11:30:53;;;;;;;14.85;10.27;;;;;;;;;;5060300;28;20043;-79
2022/03/27 11:33:31;;;;;;;16.25;11.23;;;;;;;;;;5113470;28;20027;-78
2022/03/27 11:36:14;;;;;;;14.50;11.10;;;;;;;;;;5097101;28;20106;-78
2022/03/27 11:38:52;;;;;;;20.25;13.77;;;;;;;;;;5113669;28;20031;-79
2022/03/27 11:41:27;;;;;;;24.98;16.70;;;;;;;;;;5113925;28;20062;-79
2022/03/27 11:43:54;;;;;;;21.92;14.52;;;;;;;;;;5113239;28;20035;-78
2022/03/27 11:46:23;;;;;;;21.98;14.70;;;;;;;;;;5079842;28;20101;-79
2022/03/27 11:48:55;;;;;;;28.02;14.77;;;;;;;;;;5113553;28;20526;-79
2022/03/27 11:51:24;;;;;;;28.00;15.73;;;;;;;;;;5096106;28;20421;-79
2022/03/27 11:53:50;;;;;;;27.73;15.77;;;;;;;;;;5075474;28;20077;-79
2022/03/27 11:56:15;;;;;;;21.15;15.18;;;;;;;;;;5042592;28;20032;-78
2022/03/27 11:58:42;;;;;;;20.10;14.27;;;;;;;;;;5061172;28;20028;-79
2022/03/27 12:01:09;;;;;;;25.83;14.70;;;;;;;;;;5079440;28;20044;-78
2022/03/27 12:03:35;;;;;;;34.35;22.98;;;;;;;;;;5076176;28;20032;-78
2022/03/27 12:06:05;;;;;;;37.97;22.88;;;;;;;;;;5092564;28;20032;-77
2022/03/27 12:08:36;;;;;;;34.90;24.05;;;;;;;;;;5076469;28;20428;-77
2022/03/27 12:11:06;;;;;;;34.63;21.48;;;;;;;;;;5076447;28;20069;-77
2022/03/27 12:13:43;;;;;;;35.30;23.83;;;;;;;;;;5079086;28;20469;-78
2022/03/27 12:16:23;;;;;;;36.38;23.77;;;;;;;;;;5095878;28;20539;-79
2022/03/27 12:18:48;;;;;;;32.30;21.08;;;;;;;;;;5063664;28;20032;-79
2022/03/27 12:21:14;;;;;;;34.30;23.02;;;;;;;;;;5079377;28;20112;-79
2022/03/27 12:23:50;;;;;;;35.65;23.60;;;;;;;;;;5058355;28;20059;-78
2022/03/27 12:31:54;;;;;;;42.65;22.77;;;;;;;;;;5092523;28;20032;-76
2022/03/27 12:34:21;;;;;;;35.55;21.52;;;;;;;;;;5058498;28;20039;-76
2022/03/27 12:37:10;;;;;;;35.55;21.23;;;;;;;;;;5075401;28;20461;-76
2022/03/27 12:39:54;;;;;;;31.17;21.13;;;;;;;;;;5059591;28;20555;-76
2022/03/27 12:42:35;;;;;;;34.03;22.85;;;;;;;;;;5059633;28;20047;-78
2022/03/27 12:45:11;;;;;;;33.15;21.77;;;;;;;;;;5092015;28;20036;-76
2022/03/27 12:47:51;;;;;;;34.38;23.20;;;;;;;;;;5091908;28;20063;-76
2022/03/27 12:50:32;;;;;;;40.58;24.40;;;;;;;;;;5093733;28;20084;-76
2022/03/27 12:53:06;;;;;;;33.28;24.00;;;;;;;;;;5074826;28;20119;-76
2022/03/27 12:55:46;;;;;;;36.50;24.25;;;;;;;;;;5075611;28;20510;-76
2022/03/27 12:58:12;;;;;;;39.85;23.85;;;;;;;;;;5088868;28;20031;-76
2022/03/27 13:00:40;;;;;;;33.50;22.15;;;;;;;;;;5091489;28;20044;-76
2022/03/27 13:03:17;;;;;;;36.95;22.35;;;;;;;;;;5073737;28;20559;-76
2022/03/27 13:05:55;;;;;;;33.97;21.77;;;;;;;;;;5089290;28;20032;-76
2022/03/27 13:08:29;;;;;;;31.70;22.38;;;;;;;;;;5076242;28;20406;-76
2022/03/27 13:11:05;;;;;;;31.52;20.73;;;;;;;;;;5074642;28;20085;-76
2022/03/27 13:13:31;;;;;;;29.33;20.65;;;;;;;;;;5076462;28;20050;-76
2022/03/27 13:15:57;;;;;;;29.63;21.08;;;;;;;;;;5094057;28;20035;-76
2022/03/27 13:18:30;;;;;;;28.90;20.42;;;;;;;;;;5077763;28;20122;-76
2022/03/27 13:20:56;;;;;;;29.08;19.83;;;;;;;;;;5111585;28;20031;-76
2022/03/27 13:23:21;;;;;;;27.40;19.17;;;;;;;;;;5076774;28;20116;-76
2022/03/27 13:25:47;;;;;;;31.08;19.45;;;;;;;;;;5093808;28;20039;-76
2022/03/27 13:28:13;;;;;;;26.85;17.60;;;;;;;;;;5094940;28;20039;-76
2022/03/27 13:30:38;;;;;;;30.60;19.92;;;;;;;;;;5077993;28;20043;-76
2022/03/27 13:33:04;;;;;;;26.48;18.48;;;;;;;;;;5061052;28;20042;-76
2022/03/27 13:35:30;;;;;;;26.63;18.65;;;;;;;;;;5111394;28;20111;-76
2022/03/27 13:37:56;;;;;;;25.88;18.48;;;;;;;;;;5094270;28;20092;-76
2022/03/27 13:40:22;;;;;;;25.67;19.17;;;;;;;;;;5094747;28;20512;-76
2022/03/27 13:43:00;;;;;;;25.90;17.45;;;;;;;;;;5077660;28;20040;-76
2022/03/27 13:45:29;;;;;;;26.17;18.30;;;;;;;;;;5111099;28;20458;-76
2022/03/27 13:47:55;;;;;;;26.98;18.42;;;;;;;;;;5092380;28;20043;-76
2022/03/27 13:50:22;;;;;;;25.58;17.42;;;;;;;;;;5074148;28;20510;-76
2022/03/27 13:52:47;;;;;;;22.60;16.98;;;;;;;;;;5074060;28;20134;-76
2022/03/27 13:55:13;;;;;;;26.08;17.25;;;;;;;;;;5039465;28;20571;-76
2022/03/27 13:57:38;;;;;;;24.10;17.05;;;;;;;;;;5062845;28;20036;-76
2022/03/27 14:00:04;;;;;;;26.40;17.05;;;;;;;;;;5087053;28;20391;-76
2022/03/27 14:02:30;;;;;;;22.45;15.63;;;;;;;;;;5094323;28;20043;-76
2022/03/27 14:04:57;;;;;;;25.17;16.63;;;;;;;;;;5077122;28;20044;-76
2022/03/27 14:07:23;;;;;;;21.95;15.88;;;;;;;;;;5094304;28;20528;-76
2022/03/27 14:09:49;;;;;;;25.52;16.35;;;;;;;;;;5093909;28;20035;-76
2022/03/27 14:12:14;;;;;;;21.50;15.98;;;;;;;;;;5094179;28;20043;-76
2022/03/27 14:14:40;;;;;;;23.17;16.90;;;;;;;;;;5073424;28;20537;-76
2022/03/27 14:17:07;;;;;;;21.55;15.77;;;;;;;;;;5073846;28;20040;-76
2022/03/27 14:19:32;;;;;;;23.52;16.02;;;;;;;;;;5073811;28;20059;-76
2022/03/27 14:21:58;;;;;;;20.92;15.88;;;;;;;;;;5090448;28;20047;-76
2022/03/27 14:24:23;;;;;;;21.58;14.55;;;;;;;;;;5105556;28;20382;-76
2022/03/27 14:26:48;;;;;;;24.08;17.33;;;;;;;;;;5076828;28;20401;-76
2022/03/27 14:29:14;;;;;;;21.92;16.02;;;;;;;;;;5093861;28;20035;-76
2022/03/27 14:31:40;;;;;;;20.95;14.73;;;;;;;;;;5094181;28;20129;-76
2022/03/27 14:34:05;;;;;;;24.50;16.95;;;;;;;;;;5076733;28;20066;-76
2022/03/27 14:36:31;;;;;;;23.10;15.02;;;;;;;;;;5093856;28;20039;-76
2022/03/27 14:38:56;;;;;;;21.15;15.60;;;;;;;;;;5076562;28;20035;-77
2022/03/27 14:41:22;;;;;;;24.67;15.15;;;;;;;;;;5093908;28;20451;-77
2022/03/27 14:43:48;;;;;;;23.35;15.13;;;;;;;;;;5076245;28;20039;-76
2022/03/27 14:46:13;;;;;;;20.67;14.85;;;;;;;;;;5076810;28;20043;-76
2022/03/27 14:48:39;;;;;;;21.65;14.45;;;;;;;;;;5076779;28;20092;-76